map of MYV home
MYV - Airport
Location
City:  Marysville, California, United States
Name:Yuba County Airport
ICAO:KMYV
IATA:MYV
FAA LID:MYV

Details
Type:Airport (Airfield)
Use:Public/Civil
Latitude:3905'52"N (39.097778)
Longitude:12134'11"W (-121.569832)
Datum:WGS 1984
Elevation:64 ft (20 m)
Variation:13.61E (WMM2015v2 magnetic declination)
-0.08 annual change
Runways:2
Longest:6007 × 150 ft (1831 × 45.5 m), paved

Time
Time Zone:UTC-8 (DST-7)
Local Time:

Weather
METAR:KMYV 041353Z AUTO 16017KT 10SM FEW019 BKN043 BKN060 09/07 A2947 RMK AO2 PK WND 17033/1256 RAE02 SLP981 P0000 T00890072

Related Locations
Nearby:
Farthest:FTU: 11257 mi / 18117 km
Tolagnaro [Maurillac Airport (Fort Dauphin Airport)], MG

Find:

   beyond  
but within

Other Information
Maps:
NOTAMs:
Links:
Sources:

  
  • flag of United States
  • flag of California
  

Airport Diagram

Airport diagram for MYV

Airport diagram PDF from FAA

Sectional Chart

Flight Planning
at skyvector.com

Satellite Image

Google Maps Satellite view

 

Copyright © 2004-2019 Karl L. Swartz. All rights reserved.
The Great Circle Mapper name and logo are trademarks of the Great Circle Mapper.
All other trademarks mentioned herein belong to their respective owners.
Please see credits for attibutions and further copyright information.

  Follow gcmap on Facebook Follow gcmap on Twitter GCmap on LinkedIn

hCard Microformat

Geo Microformat